sensor_id;sensor_type;location;lat;lon;timestamp;temperature;humidity
49679;DHT22;35570;48.218;16.326;2023-02-26T00:00:16;5.20;75.90
49679;DHT22;35570;48.218;16.326;2023-02-26T00:02:45;5.10;75.30
49679;DHT22;35570;48.218;16.326;2023-02-26T00:05:12;5.00;75.10
49679;DHT22;35570;48.218;16.326;2023-02-26T00:07:39;5.00;75.90
49679;DHT22;35570;48.218;16.326;2023-02-26T00:10:10;4.80;75.00
49679;DHT22;35570;48.218;16.326;2023-02-26T00:12:37;5.00;75.90
49679;DHT22;35570;48.218;16.326;2023-02-26T00:15:04;5.10;75.20
49679;DHT22;35570;48.218;16.326;2023-02-26T00:17:35;5.10;74.30
49679;DHT22;35570;48.218;16.326;2023-02-26T00:20:04;5.00;73.60
49679;DHT22;35570;48.218;16.326;2023-02-26T00:22:31;4.80;74.00
49679;DHT22;35570;48.218;16.326;2023-02-26T00:24:56;4.90;74.10
49679;DHT22;35570;48.218;16.326;2023-02-26T00:27:22;4.90;74.60
49679;DHT22;35570;48.218;16.326;2023-02-26T00:29:48;4.90;74.30
49679;DHT22;35570;48.218;16.326;2023-02-26T00:32:15;4.90;74.20
49679;DHT22;35570;48.218;16.326;2023-02-26T00:34:45;3.70;73.10
49679;DHT22;35570;48.218;16.326;2023-02-26T00:42:52;4.80;73.90
49679;DHT22;35570;48.218;16.326;2023-02-26T00:45:19;4.80;73.80
49679;DHT22;35570;48.218;16.326;2023-02-26T00:48:14;4.80;74.40
49679;DHT22;35570;48.218;16.326;2023-02-26T00:51:04;4.60;74.60
49679;DHT22;35570;48.218;16.326;2023-02-26T00:53:48;4.40;73.80
49679;DHT22;35570;48.218;16.326;2023-02-26T00:56:16;4.70;74.40
49679;DHT22;35570;48.218;16.326;2023-02-26T00:58:42;4.60;75.10
49679;DHT22;35570;48.218;16.326;2023-02-26T01:01:08;4.90;75.30
49679;DHT22;35570;48.218;16.326;2023-02-26T01:03:34;4.90;73.80
49679;DHT22;35570;48.218;16.326;2023-02-26T01:05:59;3.80;73.90
49679;DHT22;35570;48.218;16.326;2023-02-26T01:08:44;5.10;72.30
49679;DHT22;35570;48.218;16.326;2023-02-26T01:11:11;5.00;72.70
49679;DHT22;35570;48.218;16.326;2023-02-26T01:13:37;4.90;73.20
49679;DHT22;35570;48.218;16.326;2023-02-26T01:16:06;4.80;72.70
49679;DHT22;35570;48.218;16.326;2023-02-26T01:18:47;4.80;72.70
49679;DHT22;35570;48.218;16.326;2023-02-26T01:21:19;4.80;72.80
49679;DHT22;35570;48.218;16.326;2023-02-26T01:23:50;4.80;73.40
49679;DHT22;35570;48.218;16.326;2023-02-26T01:26:26;4.80;72.30
49679;DHT22;35570;48.218;16.326;2023-02-26T01:28:52;4.70;72.20
49679;DHT22;35570;48.218;16.326;2023-02-26T01:31:38;4.80;72.70
49679;DHT22;35570;48.218;16.326;2023-02-26T01:42:53;4.40;72.00
49679;DHT22;35570;48.218;16.326;2023-02-26T01:45:32;4.30;73.10
49679;DHT22;35570;48.218;16.326;2023-02-26T01:48:06;4.30;73.10
49679;DHT22;35570;48.218;16.326;2023-02-26T01:50:37;4.30;72.00
49679;DHT22;35570;48.218;16.326;2023-02-26T01:55:37;4.30;72.30
49679;DHT22;35570;48.218;16.326;2023-02-26T01:58:05;4.20;72.40
49679;DHT22;35570;48.218;16.326;2023-02-26T02:00:31;4.20;72.10
49679;DHT22;35570;48.218;16.326;2023-02-26T02:02:57;4.20;72.30
49679;DHT22;35570;48.218;16.326;2023-02-26T02:05:33;4.20;73.40
49679;DHT22;35570;48.218;16.326;2023-02-26T02:08:00;4.30;73.40
49679;DHT22;35570;48.218;16.326;2023-02-26T02:10:28;4.30;73.70
49679;DHT22;35570;48.218;16.326;2023-02-26T02:18:07;4.40;72.60
49679;DHT22;35570;48.218;16.326;2023-02-26T02:23:53;4.30;71.40
49679;DHT22;35570;48.218;16.326;2023-02-26T02:26:55;4.30;71.10
49679;DHT22;35570;48.218;16.326;2023-02-26T02:32:33;4.30;72.00
49679;DHT22;35570;48.218;16.326;2023-02-26T02:38:10;4.30;71.30
49679;DHT22;35570;48.218;16.326;2023-02-26T02:40:45;4.30;71.00
49679;DHT22;35570;48.218;16.326;2023-02-26T02:43:15;4.30;70.70
49679;DHT22;35570;48.218;16.326;2023-02-26T02:46:03;4.30;71.40
49679;DHT22;35570;48.218;16.326;2023-02-26T02:48:42;4.30;71.80
49679;DHT22;35570;48.218;16.326;2023-02-26T02:51:22;4.30;70.80
49679;DHT22;35570;48.218;16.326;2023-02-26T02:53:56;4.30;70.50
49679;DHT22;35570;48.218;16.326;2023-02-26T02:56:33;4.30;71.00
49679;DHT22;35570;48.218;16.326;2023-02-26T02:59:23;4.40;71.30
49679;DHT22;35570;48.218;16.326;2023-02-26T03:02:35;4.40;71.90
49679;DHT22;35570;48.218;16.326;2023-02-26T03:04:40;4.50;70.40
49679;DHT22;35570;48.218;16.326;2023-02-26T03:07:06;4.50;70.20
49679;DHT22;35570;48.218;16.326;2023-02-26T03:09:33;4.40;70.70
49679;DHT22;35570;48.218;16.326;2023-02-26T03:11:58;4.50;70.70
49679;DHT22;35570;48.218;16.326;2023-02-26T03:14:25;4.40;70.20
49679;DHT22;35570;48.218;16.326;2023-02-26T03:25:06;4.30;70.00
49679;DHT22;35570;48.218;16.326;2023-02-26T03:33:01;4.10;70.80
49679;DHT22;35570;48.218;16.326;2023-02-26T03:35:59;4.10;71.90
49679;DHT22;35570;48.218;16.326;2023-02-26T03:41:09;4.10;72.10
49679;DHT22;35570;48.218;16.326;2023-02-26T03:46:08;4.10;72.70
49679;DHT22;35570;48.218;16.326;2023-02-26T03:48:35;4.10;73.10
49679;DHT22;35570;48.218;16.326;2023-02-26T03:51:06;4.10;72.50
49679;DHT22;35570;48.218;16.326;2023-02-26T03:53:40;4.20;73.10
49679;DHT22;35570;48.218;16.326;2023-02-26T03:56:12;4.20;71.50
49679;DHT22;35570;48.218;16.326;2023-02-26T03:58:40;4.20;72.10
49679;DHT22;35570;48.218;16.326;2023-02-26T04:01:10;4.20;73.20
49679;DHT22;35570;48.218;16.326;2023-02-26T04:04:01;4.20;72.90
49679;DHT22;35570;48.218;16.326;2023-02-26T04:06:28;4.20;72.00
49679;DHT22;35570;48.218;16.326;2023-02-26T04:08:55;4.20;71.60
49679;DHT22;35570;48.218;16.326;2023-02-26T04:11:22;4.20;71.40
49679;DHT22;35570;48.218;16.326;2023-02-26T04:13:50;4.10;72.60
49679;DHT22;35570;48.218;16.326;2023-02-26T04:16:16;4.10;73.20
49679;DHT22;35570;48.218;16.326;2023-02-26T04:18:43;4.10;73.40
49679;DHT22;35570;48.218;16.326;2023-02-26T04:21:13;4.20;73.10
49679;DHT22;35570;48.218;16.326;2023-02-26T04:23:40;4.30;73.00
49679;DHT22;35570;48.218;16.326;2023-02-26T04:26:06;4.20;74.70
49679;DHT22;35570;48.218;16.326;2023-02-26T04:28:31;4.30;74.00
49679;DHT22;35570;48.218;16.326;2023-02-26T04:30:59;4.20;73.40
49679;DHT22;35570;48.218;16.326;2023-02-26T04:33:25;4.10;74.80
49679;DHT22;35570;48.218;16.326;2023-02-26T04:35:51;4.10;74.80
49679;DHT22;35570;48.218;16.326;2023-02-26T04:38:17;4.10;74.70
49679;DHT22;35570;48.218;16.326;2023-02-26T04:40:43;4.10;75.30
49679;DHT22;35570;48.218;16.326;2023-02-26T04:43:08;4.10;75.50
49679;DHT22;35570;48.218;16.326;2023-02-26T04:45:34;4.20;75.60
49679;DHT22;35570;48.218;16.326;2023-02-26T04:48:00;4.10;75.60
49679;DHT22;35570;48.218;16.326;2023-02-26T04:50:25;4.20;76.50
49679;DHT22;35570;48.218;16.326;2023-02-26T04:52:51;4.10;76.50
49679;DHT22;35570;48.218;16.326;2023-02-26T04:55:17;4.10;76.60
49679;DHT22;35570;48.218;16.326;2023-02-26T04:57:42;4.10;76.70
49679;DHT22;35570;48.218;16.326;2023-02-26T05:00:09;4.10;75.60
49679;DHT22;35570;48.218;16.326;2023-02-26T05:02:35;4.10;75.60
49679;DHT22;35570;48.218;16.326;2023-02-26T05:05:01;4.00;76.60
49679;DHT22;35570;48.218;16.326;2023-02-26T05:07:28;4.00;77.40
49679;DHT22;35570;48.218;16.326;2023-02-26T05:09:53;4.00;78.00
49679;DHT22;35570;48.218;16.326;2023-02-26T05:12:19;3.90;78.20
49679;DHT22;35570;48.218;16.326;2023-02-26T05:14:45;4.00;79.00
49679;DHT22;35570;48.218;16.326;2023-02-26T05:17:10;3.90;79.90
49679;DHT22;35570;48.218;16.326;2023-02-26T05:19:36;4.00;81.10
49679;DHT22;35570;48.218;16.326;2023-02-26T05:22:02;4.00;82.60
49679;DHT22;35570;48.218;16.326;2023-02-26T05:24:27;3.90;83.00
49679;DHT22;35570;48.218;16.326;2023-02-26T05:26:53;3.80;85.00
49679;DHT22;35570;48.218;16.326;2023-02-26T05:29:19;3.80;86.70
49679;DHT22;35570;48.218;16.326;2023-02-26T05:31:44;3.80;88.50
49679;DHT22;35570;48.218;16.326;2023-02-26T05:34:10;3.80;90.40
49679;DHT22;35570;48.218;16.326;2023-02-26T05:36:35;3.90;90.60
49679;DHT22;35570;48.218;16.326;2023-02-26T05:39:01;3.90;91.10
49679;DHT22;35570;48.218;16.326;2023-02-26T05:41:27;3.90;91.30
49679;DHT22;35570;48.218;16.326;2023-02-26T05:43:52;3.80;92.00
49679;DHT22;35570;48.218;16.326;2023-02-26T05:46:18;3.80;92.70
49679;DHT22;35570;48.218;16.326;2023-02-26T05:48:44;3.70;93.50
49679;DHT22;35570;48.218;16.326;2023-02-26T05:51:09;3.70;94.30
49679;DHT22;35570;48.218;16.326;2023-02-26T05:53:35;3.60;94.70
49679;DHT22;35570;48.218;16.326;2023-02-26T05:56:01;3.60;95.70
49679;DHT22;35570;48.218;16.326;2023-02-26T05:58:26;3.50;96.20
49679;DHT22;35570;48.218;16.326;2023-02-26T06:00:52;3.50;96.40
49679;DHT22;35570;48.218;16.326;2023-02-26T06:03:18;3.50;96.50
49679;DHT22;35570;48.218;16.326;2023-02-26T06:05:44;3.50;97.10
49679;DHT22;35570;48.218;16.326;2023-02-26T06:08:09;3.50;96.80
49679;DHT22;35570;48.218;16.326;2023-02-26T06:10:36;3.50;96.30
49679;DHT22;35570;48.218;16.326;2023-02-26T06:13:02;3.40;97.30
49679;DHT22;35570;48.218;16.326;2023-02-26T06:15:28;3.40;96.60
49679;DHT22;35570;48.218;16.326;2023-02-26T06:17:54;3.40;97.30
49679;DHT22;35570;48.218;16.326;2023-02-26T06:20:19;3.40;96.80
49679;DHT22;35570;48.218;16.326;2023-02-26T06:22:45;3.40;96.90
49679;DHT22;35570;48.218;16.326;2023-02-26T06:25:11;3.50;97.00
49679;DHT22;35570;48.218;16.326;2023-02-26T06:27:36;3.60;96.60
49679;DHT22;35570;48.218;16.326;2023-02-26T06:30:03;3.60;96.40
49679;DHT22;35570;48.218;16.326;2023-02-26T06:32:29;3.70;95.80
49679;DHT22;35570;48.218;16.326;2023-02-26T06:34:54;3.70;95.40
49679;DHT22;35570;48.218;16.326;2023-02-26T06:37:20;3.80;95.90
49679;DHT22;35570;48.218;16.326;2023-02-26T06:39:46;3.90;96.20
49679;DHT22;35570;48.218;16.326;2023-02-26T06:42:11;3.90;94.80
49679;DHT22;35570;48.218;16.326;2023-02-26T06:44:37;3.90;94.80
49679;DHT22;35570;48.218;16.326;2023-02-26T06:47:03;4.00;95.10
49679;DHT22;35570;48.218;16.326;2023-02-26T06:49:28;4.00;95.00
49679;DHT22;35570;48.218;16.326;2023-02-26T06:51:54;4.10;95.40
49679;DHT22;35570;48.218;16.326;2023-02-26T06:54:20;4.20;94.30
49679;DHT22;35570;48.218;16.326;2023-02-26T06:56:46;4.30;93.80
49679;DHT22;35570;48.218;16.326;2023-02-26T06:59:11;4.30;93.70
49679;DHT22;35570;48.218;16.326;2023-02-26T07:01:37;4.30;94.20
49679;DHT22;35570;48.218;16.326;2023-02-26T07:04:03;4.30;92.70
49679;DHT22;35570;48.218;16.326;2023-02-26T07:06:29;4.30;93.00
49679;DHT22;35570;48.218;16.326;2023-02-26T07:08:54;4.30;92.30
49679;DHT22;35570;48.218;16.326;2023-02-26T07:11:20;4.30;93.00
49679;DHT22;35570;48.218;16.326;2023-02-26T07:13:54;4.30;91.20
49679;DHT22;35570;48.218;16.326;2023-02-26T07:16:20;4.40;92.50
49679;DHT22;35570;48.218;16.326;2023-02-26T07:18:46;4.40;91.70
49679;DHT22;35570;48.218;16.326;2023-02-26T07:21:11;4.50;92.70
49679;DHT22;35570;48.218;16.326;2023-02-26T07:23:37;4.50;90.60
49679;DHT22;35570;48.218;16.326;2023-02-26T07:26:03;4.40;91.90
49679;DHT22;35570;48.218;16.326;2023-02-26T07:28:29;4.40;94.40
49679;DHT22;35570;48.218;16.326;2023-02-26T07:33:30;4.60;95.90
49679;DHT22;35570;48.218;16.326;2023-02-26T07:48:48;4.80;86.50
49679;DHT22;35570;48.218;16.326;2023-02-26T07:51:14;4.80;85.50
49679;DHT22;35570;48.218;16.326;2023-02-26T07:53:46;4.80;85.40
49679;DHT22;35570;48.218;16.326;2023-02-26T07:56:12;4.90;85.40
49679;DHT22;35570;48.218;16.326;2023-02-26T07:58:38;4.90;84.10
49679;DHT22;35570;48.218;16.326;2023-02-26T08:01:04;5.20;83.30
49679;DHT22;35570;48.218;16.326;2023-02-26T08:03:54;5.40;84.80
49679;DHT22;35570;48.218;16.326;2023-02-26T08:06:20;5.70;81.00
49679;DHT22;35570;48.218;16.326;2023-02-26T08:11:21;5.90;79.00
49679;DHT22;35570;48.218;16.326;2023-02-26T08:37:06;7.90;68.20
49679;DHT22;35570;48.218;16.326;2023-02-26T08:39:36;7.90;65.80
49679;DHT22;35570;48.218;16.326;2023-02-26T08:42:06;7.90;64.70
49679;DHT22;35570;48.218;16.326;2023-02-26T08:44:32;8.00;66.60
49679;DHT22;35570;48.218;16.326;2023-02-26T08:52:09;8.00;62.40
49679;DHT22;35570;48.218;16.326;2023-02-26T08:54:54;7.90;63.60
49679;DHT22;35570;48.218;16.326;2023-02-26T08:57:19;8.10;63.30
49679;DHT22;35570;48.218;16.326;2023-02-26T08:59:45;8.10;61.10
49679;DHT22;35570;48.218;16.326;2023-02-26T09:02:36;8.20;60.20
49679;DHT22;35570;48.218;16.326;2023-02-26T09:05:03;8.30;59.40
49679;DHT22;35570;48.218;16.326;2023-02-26T09:07:29;8.60;60.30
49679;DHT22;35570;48.218;16.326;2023-02-26T09:09:55;8.80;59.20
49679;DHT22;35570;48.218;16.326;2023-02-26T09:12:21;9.00;57.00
49679;DHT22;35570;48.218;16.326;2023-02-26T09:14:47;9.10;57.10
49679;DHT22;35570;48.218;16.326;2023-02-26T09:17:13;9.70;58.40
49679;DHT22;35570;48.218;16.326;2023-02-26T09:19:39;9.70;56.50
49679;DHT22;35570;48.218;16.326;2023-02-26T09:22:05;9.90;55.60
49679;DHT22;35570;48.218;16.326;2023-02-26T09:24:31;9.70;54.70
49679;DHT22;35570;48.218;16.326;2023-02-26T09:26:57;9.90;56.90
49679;DHT22;35570;48.218;16.326;2023-02-26T09:29:23;10.30;55.50
49679;DHT22;35570;48.218;16.326;2023-02-26T09:31:49;10.80;52.70
49679;DHT22;35570;48.218;16.326;2023-02-26T09:34:15;10.70;52.80
49679;DHT22;35570;48.218;16.326;2023-02-26T09:36:41;10.50;51.80
49679;DHT22;35570;48.218;16.326;2023-02-26T09:39:08;10.50;50.60
49679;DHT22;35570;48.218;16.326;2023-02-26T09:41:43;10.30;52.10
49679;DHT22;35570;48.218;16.326;2023-02-26T09:47:34;10.10;53.60
49679;DHT22;35570;48.218;16.326;2023-02-26T09:52:44;9.70;52.60
49679;DHT22;35570;48.218;16.326;2023-02-26T09:55:21;9.40;51.90
49679;DHT22;35570;48.218;16.326;2023-02-26T09:57:53;9.30;53.00
49679;DHT22;35570;48.218;16.326;2023-02-26T10:00:31;9.60;54.20
49679;DHT22;35570;48.218;16.326;2023-02-26T10:03:27;9.60;53.60
49679;DHT22;35570;48.218;16.326;2023-02-26T10:30:42;11.20;50.00
49679;DHT22;35570;48.218;16.326;2023-02-26T10:33:52;11.90;46.20
49679;DHT22;35570;48.218;16.326;2023-02-26T10:40:12;11.10;47.40
49679;DHT22;35570;48.218;16.326;2023-02-26T10:42:56;10.70;47.80
49679;DHT22;35570;48.218;16.326;2023-02-26T10:52:27;10.10;48.80
49679;DHT22;35570;48.218;16.326;2023-02-26T11:00:39;8.80;51.30
49679;DHT22;35570;48.218;16.326;2023-02-26T11:08:38;7.80;56.50
49679;DHT22;35570;48.218;16.326;2023-02-26T11:11:06;7.40;59.50
49679;DHT22;35570;48.218;16.326;2023-02-26T11:13:36;8.10;60.20
49679;DHT22;35570;48.218;16.326;2023-02-26T11:16:14;7.60;60.70
49679;DHT22;35570;48.218;16.326;2023-02-26T11:18:45;7.60;59.90
49679;DHT22;35570;48.218;16.326;2023-02-26T11:23:56;7.90;56.30
49679;DHT22;35570;48.218;16.326;2023-02-26T11:26:37;7.80;56.40
49679;DHT22;35570;48.218;16.326;2023-02-26T11:29:04;7.90;54.60
49679;DHT22;35570;48.218;16.326;2023-02-26T11:31:31;7.50;55.30
49679;DHT22;35570;48.218;16.326;2023-02-26T11:34:01;7.40;55.80
49679;DHT22;35570;48.218;16.326;2023-02-26T11:36:30;7.30;55.10
49679;DHT22;35570;48.218;16.326;2023-02-26T11:52:19;7.10;60.20
49679;DHT22;35570;48.218;16.326;2023-02-26T11:54:46;7.40;59.00
49679;DHT22;35570;48.218;16.326;2023-02-26T11:57:19;7.70;57.10
49679;DHT22;35570;48.218;16.326;2023-02-26T11:59:49;9.10;53.50
49679;DHT22;35570;48.218;16.326;2023-02-26T12:02:19;9.60;52.40
49679;DHT22;35570;48.218;16.326;2023-02-26T12:04:48;9.80;52.80
49679;DHT22;35570;48.218;16.326;2023-02-26T12:07:15;9.70;51.70
49679;DHT22;35570;48.218;16.326;2023-02-26T12:09:43;9.40;53.50
49679;DHT22;35570;48.218;16.326;2023-02-26T12:19:54;7.40;58.40
49679;DHT22;35570;48.218;16.326;2023-02-26T12:22:34;7.20;60.30
49679;DHT22;35570;48.218;16.326;2023-02-26T12:42:04;8.20;57.20
49679;DHT22;35570;48.218;16.326;2023-02-26T12:53:33;7.60;57.30
49679;DHT22;35570;48.218;16.326;2023-02-26T13:07:55;7.10;60.80
49679;DHT22;35570;48.218;16.326;2023-02-26T13:16:03;7.40;59.10
49679;DHT22;35570;48.218;16.326;2023-02-26T13:21:46;7.40;58.50
49679;DHT22;35570;48.218;16.326;2023-02-26T13:24:21;7.30;57.50
49679;DHT22;35570;48.218;16.326;2023-02-26T13:26:49;7.20;56.30
49679;DHT22;35570;48.218;16.326;2023-02-26T13:29:28;7.20;57.60
49679;DHT22;35570;48.218;16.326;2023-02-26T13:32:10;7.20;57.00
49679;DHT22;35570;48.218;16.326;2023-02-26T13:34:55;7.30;56.30
49679;DHT22;35570;48.218;16.326;2023-02-26T13:54:00;6.40;60.30
49679;DHT22;35570;48.218;16.326;2023-02-26T14:04:59;6.30;57.00
49679;DHT22;35570;48.218;16.326;2023-02-26T14:07:53;6.40;57.00
49679;DHT22;35570;48.218;16.326;2023-02-26T14:13:35;6.60;57.40
49679;DHT22;35570;48.218;16.326;2023-02-26T14:16:22;6.70;56.40
49679;DHT22;35570;48.218;16.326;2023-02-26T14:18:52;6.80;57.50
49679;DHT22;35570;48.218;16.326;2023-02-26T14:25:26;7.00;55.70
49679;DHT22;35570;48.218;16.326;2023-02-26T14:27:48;7.10;57.00
49679;DHT22;35570;48.218;16.326;2023-02-26T14:35:27;7.10;57.00
49679;DHT22;35570;48.218;16.326;2023-02-26T14:43:57;6.90;56.00
49679;DHT22;35570;48.218;16.326;2023-02-26T14:46:58;6.70;58.00
49679;DHT22;35570;48.218;16.326;2023-02-26T14:49:47;6.50;59.50
49679;DHT22;35570;48.218;16.326;2023-02-26T15:17:02;5.60;61.10
49679;DHT22;35570;48.218;16.326;2023-02-26T15:20:01;5.50;61.40
49679;DHT22;35570;48.218;16.326;2023-02-26T15:25:07;5.50;64.60
49679;DHT22;35570;48.218;16.326;2023-02-26T15:27:39;5.50;65.50
49679;DHT22;35570;48.218;16.326;2023-02-26T15:30:06;5.60;63.00
49679;DHT22;35570;48.218;16.326;2023-02-26T15:33:10;5.50;61.00
49679;DHT22;35570;48.218;16.326;2023-02-26T15:39:14;5.50;59.00
49679;DHT22;35570;48.218;16.326;2023-02-26T15:58:28;5.40;59.10
49679;DHT22;35570;48.218;16.326;2023-02-26T16:05:04;5.20;60.20
49679;DHT22;35570;48.218;16.326;2023-02-26T16:11:11;5.20;61.10
49679;DHT22;35570;48.218;16.326;2023-02-26T16:13:49;5.20;60.80
49679;DHT22;35570;48.218;16.326;2023-02-26T16:16:25;5.10;61.50
49679;DHT22;35570;48.218;16.326;2023-02-26T16:18:53;5.10;62.40
49679;DHT22;35570;48.218;16.326;2023-02-26T16:37:30;4.80;62.10
49679;DHT22;35570;48.218;16.326;2023-02-26T16:50:34;4.60;62.70
49679;DHT22;35570;48.218;16.326;2023-02-26T17:40:01;4.40;59.10
49679;DHT22;35570;48.218;16.326;2023-02-26T17:55:50;4.30;58.20
49679;DHT22;35570;48.218;16.326;2023-02-26T18:03:42;4.30;59.40
49679;DHT22;35570;48.218;16.326;2023-02-26T18:06:13;4.30;60.50
49679;DHT22;35570;48.218;16.326;2023-02-26T18:08:40;4.30;59.80
49679;DHT22;35570;48.218;16.326;2023-02-26T18:11:06;4.20;59.60
49679;DHT22;35570;48.218;16.326;2023-02-26T18:13:34;4.20;60.00
49679;DHT22;35570;48.218;16.326;2023-02-26T18:16:00;4.20;60.30
49679;DHT22;35570;48.218;16.326;2023-02-26T18:21:51;4.20;60.90
49679;DHT22;35570;48.218;16.326;2023-02-26T18:27:42;4.30;60.60
49679;DHT22;35570;48.218;16.326;2023-02-26T18:33:13;4.20;60.70
49679;DHT22;35570;48.218;16.326;2023-02-26T18:35:46;4.20;60.90
49679;DHT22;35570;48.218;16.326;2023-02-26T18:38:48;4.20;61.00
49679;DHT22;35570;48.218;16.326;2023-02-26T18:44:54;4.10;61.40
49679;DHT22;35570;48.218;16.326;2023-02-26T18:47:21;4.00;62.10
49679;DHT22;35570;48.218;16.326;2023-02-26T18:49:49;4.00;62.30
49679;DHT22;35570;48.218;16.326;2023-02-26T18:52:15;3.90;62.40
49679;DHT22;35570;48.218;16.326;2023-02-26T18:58:47;3.90;63.30
49679;DHT22;35570;48.218;16.326;2023-02-26T19:01:19;4.00;63.20
49679;DHT22;35570;48.218;16.326;2023-02-26T19:03:45;4.00;63.60
49679;DHT22;35570;48.218;16.326;2023-02-26T19:06:11;4.00;63.70
49679;DHT22;35570;48.218;16.326;2023-02-26T19:11:56;4.10;64.00
49679;DHT22;35570;48.218;16.326;2023-02-26T19:17:00;4.10;63.40
49679;DHT22;35570;48.218;16.326;2023-02-26T19:19:26;4.10;63.00
49679;DHT22;35570;48.218;16.326;2023-02-26T19:21:52;4.20;63.10
49679;DHT22;35570;48.218;16.326;2023-02-26T19:24:19;4.10;62.30
49679;DHT22;35570;48.218;16.326;2023-02-26T19:26:45;4.10;62.70
49679;DHT22;35570;48.218;16.326;2023-02-26T19:29:15;4.10;62.70
49679;DHT22;35570;48.218;16.326;2023-02-26T19:31:42;4.00;64.80
49679;DHT22;35570;48.218;16.326;2023-02-26T19:34:09;3.90;64.60
49679;DHT22;35570;48.218;16.326;2023-02-26T19:36:36;3.90;65.20
49679;DHT22;35570;48.218;16.326;2023-02-26T19:39:04;3.90;65.50
49679;DHT22;35570;48.218;16.326;2023-02-26T19:41:31;3.90;64.00
49679;DHT22;35570;48.218;16.326;2023-02-26T19:43:57;3.80;64.80
49679;DHT22;35570;48.218;16.326;2023-02-26T19:46:23;3.80;63.90
49679;DHT22;35570;48.218;16.326;2023-02-26T19:48:49;3.80;63.80
49679;DHT22;35570;48.218;16.326;2023-02-26T19:51:16;3.70;64.70
49679;DHT22;35570;48.218;16.326;2023-02-26T19:53:43;3.70;65.30
49679;DHT22;35570;48.218;16.326;2023-02-26T19:56:10;3.70;64.80
49679;DHT22;35570;48.218;16.326;2023-02-26T19:58:36;3.70;63.90
49679;DHT22;35570;48.218;16.326;2023-02-26T20:01:04;3.60;64.70
49679;DHT22;35570;48.218;16.326;2023-02-26T20:03:31;3.60;64.00
49679;DHT22;35570;48.218;16.326;2023-02-26T20:05:58;3.50;64.70
49679;DHT22;35570;48.218;16.326;2023-02-26T20:08:26;3.60;64.40
49679;DHT22;35570;48.218;16.326;2023-02-26T20:10:56;3.50;64.80
49679;DHT22;35570;48.218;16.326;2023-02-26T20:13:25;3.50;64.10
49679;DHT22;35570;48.218;16.326;2023-02-26T20:15:55;3.50;65.30
49679;DHT22;35570;48.218;16.326;2023-02-26T20:18:24;3.50;63.80
49679;DHT22;35570;48.218;16.326;2023-02-26T20:20:53;3.40;63.90
49679;DHT22;35570;48.218;16.326;2023-02-26T20:23:20;3.50;63.90
49679;DHT22;35570;48.218;16.326;2023-02-26T20:25:46;3.50;63.70
49679;DHT22;35570;48.218;16.326;2023-02-26T20:28:16;3.50;63.50
49679;DHT22;35570;48.218;16.326;2023-02-26T20:30:43;3.40;63.70
49679;DHT22;35570;48.218;16.326;2023-02-26T20:33:10;3.50;64.40
49679;DHT22;35570;48.218;16.326;2023-02-26T20:38:18;3.60;63.60
49679;DHT22;35570;48.218;16.326;2023-02-26T20:43:58;3.50;62.40
49679;DHT22;35570;48.218;16.326;2023-02-26T20:46:24;3.50;63.30
49679;DHT22;35570;48.218;16.326;2023-02-26T20:48:50;3.60;63.90
49679;DHT22;35570;48.218;16.326;2023-02-26T20:51:17;3.40;62.90
49679;DHT22;35570;48.218;16.326;2023-02-26T20:53:43;3.50;64.20
49679;DHT22;35570;48.218;16.326;2023-02-26T20:56:11;3.50;63.60
49679;DHT22;35570;48.218;16.326;2023-02-26T20:58:37;3.60;62.30
49679;DHT22;35570;48.218;16.326;2023-02-26T21:01:04;3.50;62.20
49679;DHT22;35570;48.218;16.326;2023-02-26T21:03:35;3.50;63.10
49679;DHT22;35570;48.218;16.326;2023-02-26T21:06:04;3.50;62.60
49679;DHT22;35570;48.218;16.326;2023-02-26T21:08:31;3.60;62.90
49679;DHT22;35570;48.218;16.326;2023-02-26T21:10:58;3.50;62.30
49679;DHT22;35570;48.218;16.326;2023-02-26T21:13:25;3.50;62.70
49679;DHT22;35570;48.218;16.326;2023-02-26T21:16:10;3.50;62.90
49679;DHT22;35570;48.218;16.326;2023-02-26T21:18:36;3.40;63.50
49679;DHT22;35570;48.218;16.326;2023-02-26T21:21:03;3.50;64.50
49679;DHT22;35570;48.218;16.326;2023-02-26T21:23:30;3.50;63.90
49679;DHT22;35570;48.218;16.326;2023-02-26T21:26:01;3.50;63.20
49679;DHT22;35570;48.218;16.326;2023-02-26T21:28:34;3.60;63.20
49679;DHT22;35570;48.218;16.326;2023-02-26T21:31:00;3.50;63.60
49679;DHT22;35570;48.218;16.326;2023-02-26T21:33:26;3.50;63.80
49679;DHT22;35570;48.218;16.326;2023-02-26T21:35:52;3.60;63.30
49679;DHT22;35570;48.218;16.326;2023-02-26T21:38:18;3.50;64.20
49679;DHT22;35570;48.218;16.326;2023-02-26T21:40:47;3.60;63.70
49679;DHT22;35570;48.218;16.326;2023-02-26T21:43:15;3.60;63.20
49679;DHT22;35570;48.218;16.326;2023-02-26T21:45:47;3.60;62.80
49679;DHT22;35570;48.218;16.326;2023-02-26T21:48:13;3.50;63.30
49679;DHT22;35570;48.218;16.326;2023-02-26T21:50:39;3.60;64.00
49679;DHT22;35570;48.218;16.326;2023-02-26T21:53:05;3.60;63.70
49679;DHT22;35570;48.218;16.326;2023-02-26T21:55:31;3.60;63.60
49679;DHT22;35570;48.218;16.326;2023-02-26T21:57:57;3.60;64.60
49679;DHT22;35570;48.218;16.326;2023-02-26T22:00:23;3.60;64.00
49679;DHT22;35570;48.218;16.326;2023-02-26T22:02:49;3.60;69.60
49679;DHT22;35570;48.218;16.326;2023-02-26T22:08:39;3.60;66.90
49679;DHT22;35570;48.218;16.326;2023-02-26T22:11:04;3.70;66.00
49679;DHT22;35570;48.218;16.326;2023-02-26T22:13:31;3.70;64.80
49679;DHT22;35570;48.218;16.326;2023-02-26T22:15:56;3.60;63.90
49679;DHT22;35570;48.218;16.326;2023-02-26T22:18:22;3.60;64.40
49679;DHT22;35570;48.218;16.326;2023-02-26T22:20:48;3.50;63.70
49679;DHT22;35570;48.218;16.326;2023-02-26T22:23:13;3.50;64.20
49679;DHT22;35570;48.218;16.326;2023-02-26T22:25:39;3.60;64.60
49679;DHT22;35570;48.218;16.326;2023-02-26T22:28:05;3.40;64.20
49679;DHT22;35570;48.218;16.326;2023-02-26T22:30:31;3.40;65.10
49679;DHT22;35570;48.218;16.326;2023-02-26T22:32:56;3.30;65.90
49679;DHT22;35570;48.218;16.326;2023-02-26T22:35:22;3.30;65.80
49679;DHT22;35570;48.218;16.326;2023-02-26T22:37:48;3.30;65.60
49679;DHT22;35570;48.218;16.326;2023-02-26T22:40:14;3.30;65.60
49679;DHT22;35570;48.218;16.326;2023-02-26T22:42:40;3.30;65.70
49679;DHT22;35570;48.218;16.326;2023-02-26T22:45:07;3.30;65.50
49679;DHT22;35570;48.218;16.326;2023-02-26T22:47:33;3.30;65.70
49679;DHT22;35570;48.218;16.326;2023-02-26T22:49:59;3.20;65.40
49679;DHT22;35570;48.218;16.326;2023-02-26T22:52:25;3.20;66.60
49679;DHT22;35570;48.218;16.326;2023-02-26T22:54:50;3.20;66.10
49679;DHT22;35570;48.218;16.326;2023-02-26T22:57:16;3.20;66.20
49679;DHT22;35570;48.218;16.326;2023-02-26T22:59:42;3.20;65.40
49679;DHT22;35570;48.218;16.326;2023-02-26T23:02:08;3.20;65.70
49679;DHT22;35570;48.218;16.326;2023-02-26T23:04:33;3.20;66.80
49679;DHT22;35570;48.218;16.326;2023-02-26T23:06:59;3.30;65.90